La Romana, Dominican Republic
Current Conditions -  °F | °C
As of 6:00 PM on Saturday 25 Oct 2014 (Local Time) from MDLR Reporting Station
Few Clouds Few Clouds  
Wind Chill: 82°   Ceiling: Unl
Heat Index: 91°   Visibility: 6mi
Dew Point: 77°   Wind: 9mph
Humidity: 84%   Direction: 180°S
Pressure: 29.83"   Gusts: NA
Location:  18.43°N, 68.97°W
Report Text: MDLR 252200Z 18008KT 9999 FEW019 28/25 Q1010
Loading
Personal Weather Stations






























Interactive Weather Map
Tropical Storm Tracking
New forecast layout! Learn more

10-Day Weather Forecast

Advertisements
Track Severe Weather on mobile